Time;durP1;ratioP1;P1;durP2;ratioP2;P2;SDS_P1;SDS_P2;PMS_P1;PMS_P2;Temp;Humidity;BMP_temperature;BMP_pressure;BME280_temperature;BME280_humidity;BME280_pressure;Samples;Min_cycle;Max_cycle;Signal;HPM_P1;HPM_P2
2020/12/20 00:00:08;;;;;;;14.48;10.10;;;6.50;99.90;;;;;;5052833;28;20021;-59
2020/12/20 00:02:34;;;;;;;13.55;10.13;;;6.40;99.90;;;;;;5053420;28;20119;-59
2020/12/20 00:05:00;;;;;;;11.70;9.50;;;6.40;99.90;;;;;;5018375;28;20108;-60
2020/12/20 00:07:25;;;;;;;15.15;10.93;;;6.40;99.90;;;;;;5053517;28;20056;-60
2020/12/20 00:09:51;;;;;;;14.10;10.82;;;6.40;99.90;;;;;;5053533;28;20053;-60
2020/12/20 00:12:17;;;;;;;14.07;10.73;;;6.40;99.90;;;;;;5019444;28;20032;-61
2020/12/20 00:14:43;;;;;;;22.70;11.63;;;6.40;99.90;;;;;;5053251;28;20074;-71
2020/12/20 00:17:11;;;;;;;13.20;10.63;;;6.50;99.90;;;;;;5054011;28;20025;-58
2020/12/20 00:19:37;;;;;;;14.18;11.82;;;6.40;99.90;;;;;;5053479;28;20033;-59
2020/12/20 00:22:12;;;;;;;16.77;11.60;;;6.30;99.90;;;;;;5035632;28;20108;-62
2020/12/20 00:24:39;;;;;;;15.05;10.98;;;6.40;99.90;;;;;;5054266;28;20017;-58
2020/12/20 00:27:06;;;;;;;13.38;11.00;;;6.30;99.90;;;;;;5053103;28;20079;-58
2020/12/20 00:29:33;;;;;;;12.95;9.80;;;6.30;99.90;;;;;;5035781;28;20545;-58
2020/12/20 00:32:04;;;;;;;15.43;11.32;;;6.20;99.90;;;;;;5053578;28;20036;-63
2020/12/20 00:34:30;;;;;;;13.10;10.10;;;6.30;99.90;;;;;;5054554;28;20079;-58
2020/12/20 00:36:55;;;;;;;14.40;10.45;;;6.10;99.90;;;;;;5053178;28;20033;-60
2020/12/20 00:39:22;;;;;;;15.75;11.65;;;6.20;99.90;;;;;;5037523;28;20032;-59
2020/12/20 00:41:53;;;;;;;15.68;10.93;;;6.30;99.90;;;;;;5054978;28;20021;-62
2020/12/20 00:44:19;;;;;;;19.55;13.52;;;6.40;99.90;;;;;;5055523;28;20454;-59
2020/12/20 00:46:46;;;;;;;13.07;10.32;;;6.40;99.90;;;;;;5054230;28;20032;-63
2020/12/20 00:49:12;;;;;;;16.35;11.80;;;6.30;99.90;;;;;;5053608;28;20454;-59
2020/12/20 00:51:38;;;;;;;14.02;10.32;;;6.30;99.90;;;;;;5052913;28;20029;-58
2020/12/20 00:54:04;;;;;;;15.43;10.57;;;6.40;99.90;;;;;;5037169;28;20023;-58
2020/12/20 00:56:30;;;;;;;14.93;11.07;;;6.40;99.90;;;;;;5057666;28;20100;-59
2020/12/20 00:58:55;;;;;;;14.57;10.48;;;6.30;99.90;;;;;;5057177;28;20057;-68
2020/12/20 01:01:22;;;;;;;13.85;10.57;;;6.30;99.90;;;;;;5058180;28;20080;-60
2020/12/20 01:03:47;;;;;;;15.30;10.82;;;6.10;99.90;;;;;;5038886;28;20449;-58
2020/12/20 01:06:21;;;;;;;15.63;11.05;;;6.30;99.90;;;;;;5059293;28;20111;-60
2020/12/20 01:08:47;;;;;;;13.02;10.00;;;6.20;99.90;;;;;;5040697;28;20027;-64
2020/12/20 01:11:14;;;;;;;16.02;11.30;;;6.10;99.90;;;;;;5059249;28;20036;-60
2020/12/20 01:13:50;;;;;;;14.25;11.10;;;6.20;99.90;;;;;;5058884;28;20017;-59
2020/12/20 01:16:16;;;;;;;15.82;11.30;;;6.00;99.90;;;;;;5040785;28;20061;-58
2020/12/20 01:18:42;;;;;;;14.20;10.18;;;5.90;99.90;;;;;;5057802;28;20021;-61
2020/12/20 01:21:07;;;;;;;14.63;10.63;;;6.00;99.90;;;;;;5039368;28;20023;-59
2020/12/20 01:23:33;;;;;;;17.05;11.02;;;5.80;99.90;;;;;;5057938;28;20047;-58
2020/12/20 01:25:59;;;;;;;17.30;11.00;;;5.90;99.90;;;;;;5039878;28;20060;-65
2020/12/20 01:28:27;;;;;;;15.50;11.32;;;5.80;99.90;;;;;;5056994;28;20461;-60
2020/12/20 01:30:53;;;;;;;15.05;11.07;;;6.10;99.90;;;;;;5055966;28;20020;-59
2020/12/20 01:33:18;;;;;;;14.60;10.90;;;5.80;99.90;;;;;;5056812;28;20488;-58
2020/12/20 01:35:44;;;;;;;15.73;11.40;;;5.90;99.90;;;;;;5057437;28;20036;-61
2020/12/20 01:38:09;;;;;;;16.33;11.65;;;5.70;99.90;;;;;;5056364;28;20043;-58
2020/12/20 01:40:35;;;;;;;15.98;10.85;;;5.90;99.90;;;;;;5057710;28;20401;-58
2020/12/20 01:43:01;;;;;;;17.30;11.88;;;5.90;99.90;;;;;;5057487;28;20159;-59
2020/12/20 01:45:26;;;;;;;19.05;12.35;;;5.70;99.90;;;;;;5039725;28;20450;-59
2020/12/20 01:47:52;;;;;;;17.23;12.30;;;5.70;99.90;;;;;;5055075;28;20470;-58
2020/12/20 01:50:18;;;;;;;17.00;11.98;;;5.60;99.90;;;;;;5056401;28;20022;-58
2020/12/20 01:52:43;;;;;;;17.42;11.95;;;5.60;99.90;;;;;;5055942;28;20029;-58
2020/12/20 01:55:12;;;;;;;21.08;13.13;;;5.90;99.90;;;;;;5055040;28;20052;-58
2020/12/20 01:57:37;;;;;;;14.18;11.30;;;5.80;99.90;;;;;;5021784;28;20095;-59
2020/12/20 02:00:04;;;;;;;16.83;11.65;;;5.90;99.90;;;;;;5022139;28;20033;-58
2020/12/20 02:02:29;;;;;;;15.13;11.57;;;5.80;99.90;;;;;;5056434;28;20037;-60
2020/12/20 02:04:56;;;;;;;14.85;11.05;;;5.60;99.90;;;;;;5055646;28;20039;-62
2020/12/20 02:07:21;;;;;;;15.35;11.02;;;5.60;99.90;;;;;;5056832;28;20037;-58
2020/12/20 02:09:47;;;;;;;17.33;12.07;;;5.40;99.90;;;;;;5056240;28;20017;-59
2020/12/20 02:12:13;;;;;;;17.20;11.63;;;5.60;99.90;;;;;;5055546;28;20078;-59
2020/12/20 02:14:39;;;;;;;16.67;11.35;;;5.70;99.90;;;;;;5055504;28;20017;-58
2020/12/20 02:17:06;;;;;;;15.90;11.45;;;5.60;99.90;;;;;;5054718;28;20037;-58
2020/12/20 02:19:31;;;;;;;18.90;11.63;;;5.70;99.90;;;;;;5037252;28;20512;-58
2020/12/20 02:21:57;;;;;;;20.30;12.48;;;5.70;99.90;;;;;;5036038;28;20033;-60
2020/12/20 02:24:23;;;;;;;19.00;13.38;;;5.60;99.90;;;;;;5054696;28;20031;-59
2020/12/20 02:26:49;;;;;;;15.30;11.70;;;5.40;99.90;;;;;;5054904;28;20048;-59
2020/12/20 02:29:14;;;;;;;18.20;12.38;;;5.60;99.90;;;;;;5054319;28;20025;-58
2020/12/20 02:31:40;;;;;;;16.27;12.25;;;5.70;99.90;;;;;;5054756;28;20366;-58
2020/12/20 02:34:06;;;;;;;15.60;12.38;;;5.50;99.90;;;;;;5054022;28;20037;-59
2020/12/20 02:36:32;;;;;;;17.33;11.68;;;5.70;99.90;;;;;;5054584;28;20059;-63
2020/12/20 02:38:59;;;;;;;15.65;12.45;;;5.80;99.90;;;;;;5054165;28;20071;-59
2020/12/20 02:41:25;;;;;;;16.23;11.43;;;5.70;99.90;;;;;;5054133;28;20032;-59
2020/12/20 02:43:51;;;;;;;15.27;11.10;;;5.70;99.90;;;;;;5054643;28;20024;-63
2020/12/20 02:46:17;;;;;;;23.23;12.88;;;5.60;99.90;;;;;;5036644;28;20040;-59
2020/12/20 02:48:43;;;;;;;16.80;11.65;;;5.70;99.90;;;;;;5054264;28;20067;-61
2020/12/20 02:51:09;;;;;;;17.60;12.20;;;5.80;99.90;;;;;;5054631;28;20029;-59
2020/12/20 02:53:35;;;;;;;16.63;12.10;;;5.60;99.90;;;;;;5037874;28;20029;-63
2020/12/20 02:56:00;;;;;;;19.38;13.23;;;5.60;99.90;;;;;;5056025;28;20104;-63
2020/12/20 02:58:26;;;;;;;16.15;11.40;;;5.70;99.90;;;;;;5038799;28;20021;-59
2020/12/20 03:00:52;;;;;;;21.77;13.93;;;5.70;99.90;;;;;;5056847;28;20068;-59
2020/12/20 03:03:18;;;;;;;18.58;11.90;;;5.70;99.90;;;;;;5056535;28;20036;-59
2020/12/20 03:05:43;;;;;;;21.50;11.43;;;5.70;99.90;;;;;;5056309;28;20084;-60
2020/12/20 03:08:09;;;;;;;18.33;12.70;;;5.80;99.90;;;;;;5054604;28;20021;-59
2020/12/20 03:10:34;;;;;;;16.90;11.77;;;5.70;99.90;;;;;;5020377;28;20104;-59
2020/12/20 03:13:00;;;;;;;16.10;12.32;;;5.60;99.90;;;;;;5035961;28;20029;-59
2020/12/20 03:15:26;;;;;;;17.42;12.52;;;5.60;99.90;;;;;;5054917;28;20048;-58
2020/12/20 03:17:51;;;;;;;18.02;11.45;;;5.60;99.90;;;;;;5055943;28;20366;-58
2020/12/20 03:20:17;;;;;;;16.83;11.93;;;5.60;99.90;;;;;;5055979;28;20450;-58
2020/12/20 03:22:43;;;;;;;16.48;11.73;;;5.60;99.90;;;;;;5037344;28;20037;-58
2020/12/20 03:25:09;;;;;;;17.13;11.07;;;5.40;99.90;;;;;;5037219;28;20032;-58
2020/12/20 03:27:34;;;;;;;15.18;10.93;;;5.40;99.90;;;;;;5055803;28;20451;-59
2020/12/20 03:30:00;;;;;;;15.02;10.90;;;5.50;99.90;;;;;;5037198;28;20033;-62
2020/12/20 03:32:26;;;;;;;16.00;11.82;;;5.40;99.90;;;;;;5055594;28;20037;-60
2020/12/20 03:34:52;;;;;;;15.32;10.75;;;5.20;99.90;;;;;;5037225;28;20029;-58
2020/12/20 03:37:17;;;;;;;14.32;10.73;;;5.40;99.90;;;;;;5053572;28;20029;-61
2020/12/20 03:39:43;;;;;;;15.18;10.90;;;5.60;99.90;;;;;;5035809;28;20017;-59
2020/12/20 03:42:09;;;;;;;15.93;10.75;;;5.70;99.90;;;;;;5053010;28;20503;-59
2020/12/20 03:44:34;;;;;;;14.35;10.20;;;5.60;99.90;;;;;;5053336;28;20025;-59
2020/12/20 03:47:00;;;;;;;14.70;10.88;;;5.60;99.90;;;;;;5035044;28;20462;-61
2020/12/20 03:49:26;;;;;;;17.35;11.65;;;5.50;99.90;;;;;;5053185;28;20024;-58
2020/12/20 03:51:51;;;;;;;14.70;10.68;;;5.50;99.90;;;;;;5053248;28;20094;-64
2020/12/20 03:54:17;;;;;;;15.55;11.43;;;5.60;99.90;;;;;;5054183;28;20427;-63
2020/12/20 03:56:42;;;;;;;16.42;12.18;;;5.60;99.90;;;;;;5055395;28;20021;-59
2020/12/20 03:59:08;;;;;;;16.60;12.15;;;5.30;99.90;;;;;;5036549;28;20112;-59
2020/12/20 04:01:34;;;;;;;14.07;10.98;;;5.40;99.90;;;;;;5036607;28;20029;-58
2020/12/20 04:03:59;;;;;;;19.58;12.65;;;5.40;99.90;;;;;;5054276;28;20029;-57
2020/12/20 04:06:25;;;;;;;15.90;11.75;;;5.50;99.90;;;;;;5054563;28;20041;-60
2020/12/20 04:08:50;;;;;;;16.25;11.63;;;5.30;99.90;;;;;;5054814;28;20438;-66
2020/12/20 04:11:16;;;;;;;18.88;12.38;;;5.40;99.90;;;;;;5055359;28;20465;-58
2020/12/20 04:13:42;;;;;;;17.20;11.80;;;5.30;99.90;;;;;;5055493;28;20421;-59
2020/12/20 04:16:09;;;;;;;16.83;11.88;;;5.30;99.90;;;;;;5055107;28;20013;-58
2020/12/20 04:18:36;;;;;;;19.27;12.55;;;5.30;99.90;;;;;;5037898;28;20017;-59
2020/12/20 04:21:02;;;;;;;18.83;11.93;;;5.40;99.90;;;;;;5054407;28;20032;-59
2020/12/20 04:23:28;;;;;;;15.85;11.82;;;5.60;99.90;;;;;;5053977;28;20029;-65
2020/12/20 04:25:54;;;;;;;17.02;12.52;;;5.40;99.90;;;;;;5036553;28;20021;-58
2020/12/20 04:28:20;;;;;;;17.45;12.65;;;5.40;99.90;;;;;;5053398;28;20021;-60
2020/12/20 04:30:46;;;;;;;19.13;12.25;;;5.30;99.90;;;;;;5055680;28;20132;-62
2020/12/20 04:33:12;;;;;;;22.90;14.35;;;5.30;99.90;;;;;;5055634;28;20056;-64
2020/12/20 04:35:38;;;;;;;17.92;12.63;;;5.30;99.90;;;;;;5055710;28;20017;-59
2020/12/20 04:38:04;;;;;;;19.38;12.75;;;5.30;99.90;;;;;;5053882;28;20115;-62
2020/12/20 04:40:30;;;;;;;20.42;14.10;;;5.40;99.90;;;;;;5053807;28;20393;-64
2020/12/20 04:43:08;;;;;;;19.48;12.63;;;5.20;99.90;;;;;;5036360;28;20060;-58
2020/12/20 04:45:35;;;;;;;23.17;13.35;;;5.30;99.90;;;;;;5054607;28;20053;-66
2020/12/20 04:48:01;;;;;;;19.27;13.07;;;5.20;99.90;;;;;;5053275;28;20025;-60
2020/12/20 04:50:29;;;;;;;19.85;13.80;;;5.20;99.90;;;;;;5053144;28;20025;-59
2020/12/20 04:52:56;;;;;;;20.58;12.80;;;5.10;99.90;;;;;;5053186;28;20027;-59
2020/12/20 04:55:23;;;;;;;20.25;14.10;;;5.20;99.90;;;;;;5034570;28;20115;-58
2020/12/20 04:57:51;;;;;;;18.35;12.93;;;5.10;99.90;;;;;;5053217;28;20032;-58
2020/12/20 05:00:17;;;;;;;18.13;12.43;;;5.10;99.90;;;;;;5034409;28;20036;-59
2020/12/20 05:02:43;;;;;;;18.63;13.18;;;5.10;99.90;;;;;;5052308;28;20409;-59
2020/12/20 05:05:08;;;;;;;19.75;13.55;;;5.10;99.90;;;;;;5051946;28;20021;-60
2020/12/20 05:07:34;;;;;;;18.13;13.80;;;5.20;99.90;;;;;;5053277;28;20375;-59
2020/12/20 05:10:01;;;;;;;19.65;13.77;;;5.20;99.90;;;;;;5052453;28;20020;-72
2020/12/20 05:12:27;;;;;;;19.67;13.32;;;5.20;99.90;;;;;;5052792;28;20493;-58
2020/12/20 05:14:53;;;;;;;19.17;13.05;;;5.20;99.90;;;;;;5053063;28;20021;-58
2020/12/20 05:17:19;;;;;;;20.20;13.05;;;5.20;99.90;;;;;;5053032;28;20055;-59
2020/12/20 05:19:45;;;;;;;23.40;14.77;;;5.10;99.90;;;;;;5034977;28;20021;-58
2020/12/20 05:22:19;;;;;;;19.73;14.30;;;5.10;99.90;;;;;;5034221;28;20051;-59
2020/12/20 05:24:51;;;;;;;17.23;12.15;;;5.00;99.90;;;;;;5035082;28;20025;-58
2020/12/20 05:27:19;;;;;;;;;;;5.10;99.90;;;;;;5052573;28;20025;-58
2020/12/20 05:29:48;;;;;;;18.95;13.15;;;5.20;99.90;;;;;;5052646;28;19999;-58
2020/12/20 05:32:25;;;;;;;20.00;13.40;;;5.10;99.90;;;;;;5051415;28;20029;-58
2020/12/20 05:35:05;;;;;;;21.52;14.70;;;5.20;99.90;;;;;;5052258;28;20373;-63
2020/12/20 05:37:33;;;;;;;16.45;11.65;;;5.20;99.90;;;;;;5053429;28;20096;-61
2020/12/20 05:40:00;;;;;;;17.92;12.18;;;5.10;99.90;;;;;;5056369;28;20033;-61
2020/12/20 05:42:26;;;;;;;17.77;12.30;;;5.00;99.90;;;;;;5057233;28;20142;-59
2020/12/20 05:45:08;;;;;;;17.67;12.50;;;5.10;99.90;;;;;;5056602;28;20533;-58
2020/12/20 05:47:34;;;;;;;21.55;13.60;;;5.20;99.90;;;;;;5056810;28;20021;-60
2020/12/20 05:50:00;;;;;;;21.13;12.65;;;5.10;99.90;;;;;;5056038;28;20466;-58
2020/12/20 05:52:26;;;;;;;17.27;12.30;;;5.10;99.90;;;;;;5055188;28;20064;-59
2020/12/20 05:54:51;;;;;;;18.23;12.95;;;5.20;99.90;;;;;;5055683;28;20025;-58
2020/12/20 05:57:20;;;;;;;17.40;12.10;;;5.30;99.90;;;;;;5037047;28;20060;-59
2020/12/20 05:59:47;;;;;;;16.77;11.85;;;5.20;99.90;;;;;;5055348;28;20213;-59
2020/12/20 06:02:14;;;;;;;18.45;12.38;;;5.30;99.90;;;;;;5044885;28;20087;-59
2020/12/20 06:04:41;;;;;;;19.17;12.70;;;5.30;99.90;;;;;;5041527;28;20040;-60
2020/12/20 06:07:07;;;;;;;17.83;12.45;;;5.30;99.90;;;;;;5042242;28;20053;-59
2020/12/20 06:09:58;;;;;;;19.02;14.00;;;5.10;99.90;;;;;;5024344;28;20097;-62
2020/12/20 06:12:27;;;;;;;17.08;12.15;;;6.00;99.90;;;;;;5015530;28;20110;-59
2020/12/20 06:14:55;;;;;;;17.60;12.23;;;6.00;99.90;;;;;;5034643;28;20060;-60
2020/12/20 06:17:25;;;;;;;20.75;13.70;;;5.70;99.90;;;;;;5016576;28;20029;-59
2020/12/20 06:20:26;;;;;;;17.27;12.90;;;5.50;99.90;;;;;;5017069;28;20028;-59
2020/12/20 06:22:53;;;;;;;16.55;11.60;;;5.60;99.90;;;;;;5034716;28;20037;-59
2020/12/20 06:25:29;;;;;;;18.15;12.32;;;5.40;99.90;;;;;;5035302;28;20044;-59
2020/12/20 06:28:04;;;;;;;18.92;13.13;;;5.50;99.90;;;;;;5018234;28;20053;-60
2020/12/20 06:30:30;;;;;;;21.08;13.05;;;5.40;99.90;;;;;;5035518;28;20036;-60
2020/12/20 06:33:01;;;;;;;21.25;12.40;;;5.40;99.90;;;;;;5035895;28;20402;-64
2020/12/20 06:35:30;;;;;;;16.40;12.70;;;5.30;99.90;;;;;;5018142;28;20198;-60
2020/12/20 06:37:57;;;;;;;16.75;11.30;;;5.10;99.90;;;;;;5036544;28;20494;-61
2020/12/20 06:40:31;;;;;;;17.17;12.88;;;5.40;99.90;;;;;;5046672;28;20059;-60
2020/12/20 06:42:58;;;;;;;19.42;11.75;;;5.60;99.90;;;;;;5026917;28;20033;-59
2020/12/20 06:45:25;;;;;;;18.45;12.52;;;5.30;99.90;;;;;;5036161;28;20025;-59
2020/12/20 06:48:00;;;;;;;17.50;12.20;;;5.20;99.90;;;;;;5053757;28;20028;-59
2020/12/20 06:50:38;;;;;;;19.52;13.45;;;5.40;99.90;;;;;;5052955;28;20107;-59
2020/12/20 06:53:12;;;;;;;20.77;13.82;;;5.30;99.90;;;;;;5054321;28;20029;-61
2020/12/20 06:55:38;;;;;;;17.83;12.95;;;5.10;99.90;;;;;;5037038;28;20537;-59
2020/12/20 06:58:08;;;;;;;17.60;11.95;;;5.20;99.90;;;;;;5054657;28;20021;-58
2020/12/20 07:00:42;;;;;;;17.85;12.57;;;5.30;99.90;;;;;;5054870;28;20086;-59
2020/12/20 07:03:10;;;;;;;18.42;12.70;;;5.50;99.90;;;;;;5036427;28;20067;-59
2020/12/20 07:05:44;;;;;;;16.98;12.15;;;5.50;99.90;;;;;;5054124;28;20087;-59
2020/12/20 07:08:27;;;;;;;19.58;13.77;;;5.40;99.90;;;;;;5055206;28;20051;-59
2020/12/20 07:11:00;;;;;;;18.50;13.75;;;5.30;99.90;;;;;;5055431;28;20029;-58
2020/12/20 07:13:42;;;;;;;17.85;12.88;;;5.20;99.90;;;;;;5054951;28;20060;-59
2020/12/20 07:16:14;;;;;;;;;;;5.10;99.90;;;;;;5037107;28;20025;-60
2020/12/20 07:18:53;;;;;;;;;;;5.20;99.90;;;;;;5054638;28;19916;-58
2020/12/20 07:21:18;;;;;;;18.17;13.40;;;5.30;99.90;;;;;;5035675;28;19950;-60
2020/12/20 07:23:49;;;;;;;19.88;12.98;;;5.20;99.90;;;;;;5054780;28;20104;-59
2020/12/20 07:26:15;;;;;;;17.53;12.70;;;5.40;99.90;;;;;;5054390;28;20025;-59
2020/12/20 07:28:41;;;;;;;18.00;11.93;;;5.40;99.90;;;;;;5054947;28;20656;-58
2020/12/20 07:31:20;;;;;;;17.23;11.90;;;5.40;99.90;;;;;;5054355;28;20025;-75
2020/12/20 07:33:50;;;;;;;17.80;12.38;;;5.30;99.90;;;;;;5036489;28;20065;-62
2020/12/20 07:36:18;;;;;;;17.90;11.93;;;5.40;99.90;;;;;;5054175;28;20048;-59
2020/12/20 07:38:44;;;;;;;17.50;12.95;;;5.30;99.90;;;;;;5054082;28;20064;-59
2020/12/20 07:41:11;;;;;;;18.50;12.02;;;5.30;99.90;;;;;;5053288;28;20386;-59
2020/12/20 07:43:37;;;;;;;19.25;13.43;;;5.50;99.90;;;;;;5053782;28;20021;-59
2020/12/20 07:46:05;;;;;;;17.90;12.68;;;5.50;99.90;;;;;;5046882;28;20040;-59
2020/12/20 07:48:31;;;;;;;18.85;13.45;;;5.40;99.90;;;;;;5035400;28;20028;-59
2020/12/20 07:51:26;;;;;;;19.50;12.65;;;5.40;99.90;;;;;;5053446;28;20021;-59
2020/12/20 07:53:56;;;;;;;20.63;14.45;;;5.60;99.90;;;;;;5036754;28;20034;-65
2020/12/20 07:56:33;;;;;;;28.33;16.27;;;5.70;99.90;;;;;;5019208;28;20021;-64
2020/12/20 07:59:08;;;;;;;19.65;13.57;;;5.90;99.90;;;;;;5030096;28;20025;-59
2020/12/20 08:01:35;;;;;;;20.23;13.80;;;5.60;99.90;;;;;;5040428;28;20044;-59
2020/12/20 08:04:07;;;;;;;20.40;12.60;;;5.50;99.90;;;;;;5023619;28;20040;-58
2020/12/20 08:06:36;;;;;;;19.98;14.32;;;5.60;99.90;;;;;;5020514;28;20048;-59
2020/12/20 08:09:13;;;;;;;17.33;12.38;;;5.80;99.90;;;;;;5026630;28;20051;-59
2020/12/20 08:11:40;;;;;;;19.80;13.30;;;5.40;99.90;;;;;;5027801;28;20032;-59
2020/12/20 08:14:08;;;;;;;20.48;13.23;;;5.20;99.90;;;;;;5010583;28;20108;-62
2020/12/20 08:16:36;;;;;;;16.02;12.15;;;5.30;99.90;;;;;;5041199;28;20112;-59
2020/12/20 08:19:08;;;;;;;17.50;12.23;;;5.40;99.90;;;;;;5043337;28;20104;-59
2020/12/20 08:21:47;;;;;;;17.83;11.95;;;5.50;99.90;;;;;;5030422;28;20447;-59
2020/12/20 08:24:15;;;;;;;16.55;12.48;;;5.70;99.90;;;;;;5033740;28;20044;-74
2020/12/20 08:26:41;;;;;;;18.73;13.38;;;5.40;99.90;;;;;;5017975;28;20029;-59
2020/12/20 08:29:07;;;;;;;19.73;12.73;;;5.40;99.90;;;;;;5034614;28;20098;-59
2020/12/20 08:31:34;;;;;;;16.95;12.65;;;5.50;99.90;;;;;;5033714;28;20099;-61
2020/12/20 08:34:01;;;;;;;16.58;12.25;;;5.30;99.90;;;;;;5052889;28;20061;-59
2020/12/20 08:36:27;;;;;;;20.05;13.65;;;5.30;99.90;;;;;;5052068;28;20031;-60
2020/12/20 08:38:54;;;;;;;20.10;13.82;;;5.30;99.90;;;;;;5053129;28;20355;-59
2020/12/20 08:41:25;;;;;;;18.00;13.88;;;5.40;99.90;;;;;;5051927;28;20458;-58
2020/12/20 08:44:10;;;;;;;17.38;12.80;;;5.20;99.90;;;;;;5052039;28;20029;-59
2020/12/20 08:46:38;;;;;;;17.73;12.90;;;5.30;99.90;;;;;;5051724;28;20045;-60
2020/12/20 08:49:22;;;;;;;17.38;13.32;;;5.40;99.90;;;;;;5034293;28;20025;-58
2020/12/20 08:51:50;;;;;;;17.13;11.93;;;5.40;99.90;;;;;;5014699;28;20033;-61
2020/12/20 08:54:28;;;;;;;17.60;11.85;;;5.40;99.90;;;;;;5031762;28;20030;-69
2020/12/20 08:56:59;;;;;;;19.10;12.77;;;5.30;99.90;;;;;;5032173;28;20561;-59
2020/12/20 08:59:46;;;;;;;18.50;13.10;;;5.10;99.90;;;;;;5031678;28;20029;-62
2020/12/20 09:02:25;;;;;;;20.80;12.43;;;5.10;99.90;;;;;;5032200;28;20208;-59
2020/12/20 09:04:58;;;;;;;17.70;12.95;;;5.20;99.90;;;;;;5041755;28;20045;-60
2020/12/20 09:07:40;;;;;;;20.02;12.85;;;5.20;99.90;;;;;;5044459;28;20545;-61
2020/12/20 09:10:12;;;;;;;19.20;13.65;;;5.00;99.90;;;;;;5041213;28;20021;-60
2020/12/20 09:12:49;;;;;;;20.27;13.07;;;5.10;99.90;;;;;;5025871;28;20472;-61
2020/12/20 09:15:16;;;;;;;18.52;12.50;;;5.30;99.90;;;;;;5043994;28;20100;-68
2020/12/20 09:17:47;;;;;;;17.75;12.20;;;5.30;99.90;;;;;;5043269;28;20048;-63
2020/12/20 09:20:15;;;;;;;17.90;12.80;;;5.50;99.90;;;;;;5025128;28;20025;-62
2020/12/20 09:22:42;;;;;;;17.92;12.48;;;5.30;99.90;;;;;;5042363;28;20064;-59
2020/12/20 09:25:09;;;;;;;18.98;12.82;;;5.20;99.90;;;;;;5027017;28;20025;-60
2020/12/20 09:27:35;;;;;;;18.30;12.90;;;5.30;99.90;;;;;;5041033;28;20053;-58
2020/12/20 09:30:02;;;;;;;16.13;11.95;;;5.40;99.90;;;;;;5043734;28;20095;-60
2020/12/20 09:32:38;;;;;;;16.10;12.20;;;5.50;99.90;;;;;;5045342;28;20103;-59
2020/12/20 09:35:08;;;;;;;17.95;12.65;;;5.60;99.90;;;;;;5023073;28;20101;-62
2020/12/20 09:37:38;;;;;;;19.02;12.18;;;5.50;99.90;;;;;;5051921;28;20509;-58
2020/12/20 09:40:04;;;;;;;19.17;12.13;;;5.30;99.90;;;;;;5049130;28;20028;-60
2020/12/20 09:42:37;;;;;;;18.33;13.48;;;5.50;99.90;;;;;;5045978;28;20040;-59
2020/12/20 09:45:03;;;;;;;17.70;12.18;;;5.50;99.90;;;;;;5040644;28;20029;-71
2020/12/20 09:47:29;;;;;;;21.65;13.00;;;5.50;99.90;;;;;;5033142;28;20091;-59
2020/12/20 09:49:55;;;;;;;16.48;12.60;;;5.40;99.90;;;;;;5055171;28;20147;-60
2020/12/20 09:52:20;;;;;;;21.60;14.15;;;5.60;99.90;;;;;;5054343;28;20033;-61
2020/12/20 09:54:46;;;;;;;16.90;12.30;;;5.60;99.90;;;;;;5037693;28;20112;-59
2020/12/20 09:57:11;;;;;;;15.93;11.73;;;5.80;99.90;;;;;;5037203;28;20025;-60
2020/12/20 09:59:37;;;;;;;16.58;12.35;;;5.80;99.90;;;;;;5057674;28;20075;-63
2020/12/20 10:02:04;;;;;;;17.95;11.88;;;5.80;99.90;;;;;;5056393;28;20458;-59
2020/12/20 10:04:34;;;;;;;18.52;12.52;;;5.80;99.90;;;;;;5050910;28;20044;-60
2020/12/20 10:07:00;;;;;;;17.77;12.60;;;5.70;99.90;;;;;;5043696;28;20049;-59
2020/12/20 10:09:26;;;;;;;18.77;13.25;;;5.60;99.90;;;;;;5019188;28;20037;-62
2020/12/20 10:11:51;;;;;;;19.33;12.93;;;5.50;99.90;;;;;;5034518;28;20029;-60
2020/12/20 10:14:18;;;;;;;18.33;12.65;;;5.60;99.90;;;;;;5034293;28;20036;-70
2020/12/20 10:16:43;;;;;;;19.30;13.40;;;5.60;99.90;;;;;;5034122;28;20025;-58
2020/12/20 10:19:09;;;;;;;17.38;11.40;;;5.50;99.90;;;;;;5000373;28;20090;-59
2020/12/20 10:21:35;;;;;;;20.10;14.13;;;5.60;99.90;;;;;;5034742;28;20041;-60
2020/12/20 10:24:00;;;;;;;18.42;12.95;;;5.70;99.90;;;;;;5029542;28;20025;-63
2020/12/20 10:26:26;;;;;;;17.58;11.95;;;5.60;99.90;;;;;;5054362;28;20029;-59
2020/12/20 10:28:52;;;;;;;17.90;12.65;;;5.80;99.90;;;;;;5037865;28;20059;-59
2020/12/20 10:31:18;;;;;;;19.00;12.60;;;5.70;99.90;;;;;;5039044;28;20030;-69
2020/12/20 10:33:45;;;;;;;16.23;11.80;;;5.60;99.90;;;;;;5040199;28;20029;-60
2020/12/20 10:36:13;;;;;;;20.55;13.52;;;5.70;99.90;;;;;;5055607;28;20047;-60
2020/12/20 10:38:39;;;;;;;20.98;12.02;;;5.60;99.90;;;;;;5036885;28;20115;-64
2020/12/20 10:41:04;;;;;;;19.90;14.38;;;5.70;99.90;;;;;;5036745;28;20037;-61
2020/12/20 10:43:30;;;;;;;19.60;12.90;;;5.70;99.90;;;;;;5054658;28;20044;-60
2020/12/20 10:45:56;;;;;;;16.67;11.77;;;5.50;99.90;;;;;;5036731;28;20035;-59
2020/12/20 10:48:21;;;;;;;20.25;12.65;;;5.60;99.90;;;;;;5054044;28;20508;-65
2020/12/20 10:50:47;;;;;;;20.00;13.07;;;5.50;99.90;;;;;;5054139;28;20032;-59
2020/12/20 10:53:13;;;;;;;19.13;12.27;;;5.70;99.90;;;;;;5054196;28;20088;-63
2020/12/20 10:55:39;;;;;;;20.38;13.85;;;5.80;99.90;;;;;;5035824;28;20608;-59
2020/12/20 10:58:05;;;;;;;18.83;12.75;;;5.80;99.90;;;;;;5054114;28;20091;-59
2020/12/20 11:00:30;;;;;;;15.38;11.55;;;5.80;99.90;;;;;;5045648;28;20411;-60
2020/12/20 11:02:56;;;;;;;19.08;13.00;;;5.80;99.90;;;;;;5033838;28;20045;-60
2020/12/20 11:05:22;;;;;;;17.38;12.30;;;5.70;99.90;;;;;;5016469;28;20022;-69
2020/12/20 11:07:47;;;;;;;19.55;13.13;;;5.70;99.90;;;;;;5044249;28;20421;-60
2020/12/20 11:10:13;;;;;;;17.35;12.27;;;5.90;99.90;;;;;;5016618;28;20026;-62
2020/12/20 11:12:39;;;;;;;20.50;12.85;;;6.10;99.90;;;;;;5033261;28;20033;-59
2020/12/20 11:15:04;;;;;;;19.00;12.60;;;6.20;99.90;;;;;;5033934;28;20455;-59
2020/12/20 11:17:30;;;;;;;17.40;12.00;;;6.30;99.90;;;;;;5015272;28;20460;-61
2020/12/20 11:19:55;;;;;;;18.70;13.27;;;6.40;99.90;;;;;;5015583;28;20071;-60
2020/12/20 11:22:21;;;;;;;19.05;13.52;;;6.40;99.90;;;;;;5032927;28;20467;-69
2020/12/20 11:24:47;;;;;;;16.42;11.90;;;6.50;99.90;;;;;;5039805;28;20025;-60
2020/12/20 11:27:13;;;;;;;16.17;12.52;;;6.60;99.90;;;;;;5053065;28;20029;-60
2020/12/20 11:29:39;;;;;;;17.80;13.15;;;6.70;99.90;;;;;;5032689;28;20449;-61
2020/12/20 11:32:06;;;;;;;22.27;14.23;;;6.80;99.90;;;;;;5053269;28;20029;-60
2020/12/20 11:34:31;;;;;;;16.17;13.18;;;6.90;99.90;;;;;;5052524;28;20554;-61
2020/12/20 11:36:57;;;;;;;22.85;14.82;;;6.90;99.90;;;;;;5050104;28;20109;-59
2020/12/20 11:39:23;;;;;;;17.27;12.70;;;6.90;99.90;;;;;;5015296;28;20107;-70
2020/12/20 11:41:49;;;;;;;21.45;14.52;;;6.90;99.90;;;;;;5015367;28;20030;-60
2020/12/20 11:44:15;;;;;;;21.85;16.13;;;6.80;99.90;;;;;;5033388;28;20025;-59
2020/12/20 11:46:40;;;;;;;17.95;12.45;;;6.40;99.90;;;;;;5032346;28;20021;-59
2020/12/20 11:49:06;;;;;;;25.92;16.42;;;6.30;99.90;;;;;;5016040;28;20033;-59
2020/12/20 11:51:32;;;;;;;22.02;13.77;;;6.50;99.90;;;;;;5032260;28;20399;-60
2020/12/20 11:53:58;;;;;;;21.27;14.15;;;6.40;99.90;;;;;;5032937;28;20021;-59
2020/12/20 11:56:25;;;;;;;24.08;14.20;;;6.10;99.90;;;;;;5032767;28;20029;-69
2020/12/20 11:58:52;;;;;;;19.80;13.98;;;6.00;99.90;;;;;;5032824;28;20025;-60
2020/12/20 12:01:23;;;;;;;20.23;13.63;;;6.00;99.90;;;;;;5015401;28;20501;-60
2020/12/20 12:03:49;;;;;;;19.17;13.53;;;6.20;99.90;;;;;;5032907;28;20053;-59
2020/12/20 12:06:15;;;;;;;20.80;14.48;;;6.30;99.90;;;;;;5043737;28;20144;-60
2020/12/20 12:08:42;;;;;;;19.88;13.77;;;6.30;99.90;;;;;;5044334;28;20025;-61
2020/12/20 12:11:07;;;;;;;22.50;15.30;;;6.10;99.90;;;;;;5028345;28;20037;-60
2020/12/20 12:13:33;;;;;;;22.45;14.90;;;6.00;99.90;;;;;;5009718;28;20120;-61
2020/12/20 12:15:59;;;;;;;22.23;15.38;;;6.10;99.90;;;;;;5037806;28;20032;-65
2020/12/20 12:18:24;;;;;;;20.80;14.45;;;6.30;99.90;;;;;;5043487;28;20025;-67
2020/12/20 12:20:50;;;;;;;23.45;14.68;;;6.10;99.90;;;;;;5027101;28;20053;-60
2020/12/20 12:23:16;;;;;;;20.10;14.15;;;5.90;99.90;;;;;;5045917;28;20040;-64
2020/12/20 12:25:41;;;;;;;22.77;14.25;;;6.10;99.90;;;;;;5024910;28;20112;-61
2020/12/20 12:28:07;;;;;;;24.88;14.75;;;6.00;99.90;;;;;;5027434;28;20037;-61
2020/12/20 12:30:33;;;;;;;20.98;13.65;;;5.90;99.90;;;;;;5041684;28;20025;-60
2020/12/20 12:32:59;;;;;;;23.05;15.68;;;5.90;99.90;;;;;;5041110;28;20033;-66
2020/12/20 12:35:25;;;;;;;49.90;26.98;;;6.10;99.90;;;;;;5036357;28;20056;-72
2020/12/20 12:37:51;;;;;;;21.33;13.60;;;6.30;99.90;;;;;;5036397;28;20035;-60
2020/12/20 12:40:18;;;;;;;21.50;13.55;;;6.10;99.90;;;;;;5053435;28;20029;-62